sensor_id;sensor_type;location;lat;lon;timestamp;P1;durP1;ratioP1;P2;durP2;ratioP2
67841;SDS011;54642;59.126;37.876;2022-08-30T00:02:11;16.05;;;11.38;;
67841;SDS011;54642;59.126;37.876;2022-08-30T00:04:37;20.35;;;12.63;;
67841;SDS011;54642;59.126;37.876;2022-08-30T00:07:03;18.67;;;11.88;;
67841;SDS011;54642;59.126;37.876;2022-08-30T00:09:30;16.38;;;11.85;;
67841;SDS011;54642;59.126;37.876;2022-08-30T00:11:56;22.48;;;13.50;;
67841;SDS011;54642;59.126;37.876;2022-08-30T00:14:23;20.90;;;13.73;;
67841;SDS011;54642;59.126;37.876;2022-08-30T00:16:51;19.08;;;13.77;;
67841;SDS011;54642;59.126;37.876;2022-08-30T00:19:17;19.35;;;13.18;;
67841;SDS011;54642;59.126;37.876;2022-08-30T00:21:43;20.83;;;13.50;;
67841;SDS011;54642;59.126;37.876;2022-08-30T00:24:09;18.88;;;14.80;;
67841;SDS011;54642;59.126;37.876;2022-08-30T00:26:35;22.13;;;12.70;;
67841;SDS011;54642;59.126;37.876;2022-08-30T00:29:00;19.45;;;13.35;;
67841;SDS011;54642;59.126;37.876;2022-08-30T00:31:26;22.05;;;12.63;;
67841;SDS011;54642;59.126;37.876;2022-08-30T00:33:52;19.15;;;12.23;;
67841;SDS011;54642;59.126;37.876;2022-08-30T00:36:18;19.17;;;11.68;;
67841;SDS011;54642;59.126;37.876;2022-08-30T00:38:44;17.17;;;11.57;;
67841;SDS011;54642;59.126;37.876;2022-08-30T00:41:10;15.88;;;12.77;;
67841;SDS011;54642;59.126;37.876;2022-08-30T00:43:35;17.50;;;13.45;;
67841;SDS011;54642;59.126;37.876;2022-08-30T00:46:02;18.83;;;12.88;;
67841;SDS011;54642;59.126;37.876;2022-08-30T00:48:32;18.27;;;13.15;;
67841;SDS011;54642;59.126;37.876;2022-08-30T00:51:03;23.23;;;13.30;;
67841;SDS011;54642;59.126;37.876;2022-08-30T00:53:33;18.75;;;11.30;;
67841;SDS011;54642;59.126;37.876;2022-08-30T00:56:02;19.40;;;13.90;;
67841;SDS011;54642;59.126;37.876;2022-08-30T00:58:34;18.48;;;13.07;;
67841;SDS011;54642;59.126;37.876;2022-08-30T01:01:03;16.90;;;11.18;;
67841;SDS011;54642;59.126;37.876;2022-08-30T01:03:31;19.65;;;11.15;;
67841;SDS011;54642;59.126;37.876;2022-08-30T01:05:58;18.98;;;12.63;;
67841;SDS011;54642;59.126;37.876;2022-08-30T01:08:24;16.92;;;11.38;;
67841;SDS011;54642;59.126;37.876;2022-08-30T01:10:51;17.17;;;12.75;;
67841;SDS011;54642;59.126;37.876;2022-08-30T01:13:20;17.05;;;12.18;;
67841;SDS011;54642;59.126;37.876;2022-08-30T01:15:47;18.25;;;12.05;;
67841;SDS011;54642;59.126;37.876;2022-08-30T01:18:14;20.55;;;12.23;;
67841;SDS011;54642;59.126;37.876;2022-08-30T01:20:47;17.20;;;10.48;;
67841;SDS011;54642;59.126;37.876;2022-08-30T01:23:14;18.70;;;11.63;;
67841;SDS011;54642;59.126;37.876;2022-08-30T01:25:43;21.73;;;14.35;;
67841;SDS011;54642;59.126;37.876;2022-08-30T01:28:17;16.15;;;10.35;;
67841;SDS011;54642;59.126;37.876;2022-08-30T01:30:46;15.23;;;11.25;;
67841;SDS011;54642;59.126;37.876;2022-08-30T01:33:13;17.08;;;11.23;;
67841;SDS011;54642;59.126;37.876;2022-08-30T01:35:43;16.08;;;10.73;;
67841;SDS011;54642;59.126;37.876;2022-08-30T01:38:22;17.95;;;10.57;;
67841;SDS011;54642;59.126;37.876;2022-08-30T01:40:55;19.45;;;12.20;;
67841;SDS011;54642;59.126;37.876;2022-08-30T01:43:23;17.05;;;9.93;;
67841;SDS011;54642;59.126;37.876;2022-08-30T01:45:50;16.70;;;10.52;;
67841;SDS011;54642;59.126;37.876;2022-08-30T01:48:16;16.50;;;9.80;;
67841;SDS011;54642;59.126;37.876;2022-08-30T01:50:42;16.33;;;9.30;;
67841;SDS011;54642;59.126;37.876;2022-08-30T01:53:08;16.77;;;9.98;;
67841;SDS011;54642;59.126;37.876;2022-08-30T01:55:35;14.90;;;8.65;;
67841;SDS011;54642;59.126;37.876;2022-08-30T01:58:02;14.13;;;8.35;;
67841;SDS011;54642;59.126;37.876;2022-08-30T02:00:29;14.60;;;9.13;;
67841;SDS011;54642;59.126;37.876;2022-08-30T02:02:55;15.30;;;9.48;;
67841;SDS011;54642;59.126;37.876;2022-08-30T02:05:22;15.13;;;9.52;;
67841;SDS011;54642;59.126;37.876;2022-08-30T02:07:48;14.35;;;9.15;;
67841;SDS011;54642;59.126;37.876;2022-08-30T02:10:14;24.92;;;16.20;;
67841;SDS011;54642;59.126;37.876;2022-08-30T02:12:40;18.73;;;12.00;;
67841;SDS011;54642;59.126;37.876;2022-08-30T02:15:06;18.85;;;10.32;;
67841;SDS011;54642;59.126;37.876;2022-08-30T02:17:34;13.98;;;9.05;;
67841;SDS011;54642;59.126;37.876;2022-08-30T02:20:00;11.98;;;9.35;;
67841;SDS011;54642;59.126;37.876;2022-08-30T02:22:26;13.20;;;9.57;;
67841;SDS011;54642;59.126;37.876;2022-08-30T02:24:52;12.30;;;8.48;;
67841;SDS011;54642;59.126;37.876;2022-08-30T02:27:17;14.85;;;10.52;;
67841;SDS011;54642;59.126;37.876;2022-08-30T02:29:43;12.73;;;9.25;;
67841;SDS011;54642;59.126;37.876;2022-08-30T02:32:09;16.63;;;12.10;;
67841;SDS011;54642;59.126;37.876;2022-08-30T02:34:35;12.45;;;9.88;;
67841;SDS011;54642;59.126;37.876;2022-08-30T02:37:01;16.05;;;9.82;;
67841;SDS011;54642;59.126;37.876;2022-08-30T02:39:27;16.17;;;10.00;;
67841;SDS011;54642;59.126;37.876;2022-08-30T02:41:52;13.02;;;8.40;;
67841;SDS011;54642;59.126;37.876;2022-08-30T02:44:18;16.02;;;10.15;;
67841;SDS011;54642;59.126;37.876;2022-08-30T02:46:44;13.55;;;8.65;;
67841;SDS011;54642;59.126;37.876;2022-08-30T02:49:10;16.00;;;11.60;;
67841;SDS011;54642;59.126;37.876;2022-08-30T02:51:36;15.57;;;9.63;;
67841;SDS011;54642;59.126;37.876;2022-08-30T02:54:01;14.52;;;9.77;;
67841;SDS011;54642;59.126;37.876;2022-08-30T02:56:27;11.98;;;8.85;;
67841;SDS011;54642;59.126;37.876;2022-08-30T02:58:53;14.10;;;8.85;;
67841;SDS011;54642;59.126;37.876;2022-08-30T03:01:19;14.45;;;10.75;;
67841;SDS011;54642;59.126;37.876;2022-08-30T03:03:45;22.23;;;11.45;;
67841;SDS011;54642;59.126;37.876;2022-08-30T03:06:12;19.65;;;11.15;;
67841;SDS011;54642;59.126;37.876;2022-08-30T03:08:38;13.68;;;9.55;;
67841;SDS011;54642;59.126;37.876;2022-08-30T03:11:04;13.43;;;9.00;;
67841;SDS011;54642;59.126;37.876;2022-08-30T03:13:30;19.70;;;12.27;;
67841;SDS011;54642;59.126;37.876;2022-08-30T03:15:56;16.02;;;8.77;;
67841;SDS011;54642;59.126;37.876;2022-08-30T03:18:23;13.43;;;9.88;;
67841;SDS011;54642;59.126;37.876;2022-08-30T03:20:50;17.13;;;8.88;;
67841;SDS011;54642;59.126;37.876;2022-08-30T03:23:17;14.80;;;8.50;;
67841;SDS011;54642;59.126;37.876;2022-08-30T03:25:43;23.05;;;14.43;;
67841;SDS011;54642;59.126;37.876;2022-08-30T03:28:09;16.52;;;11.95;;
67841;SDS011;54642;59.126;37.876;2022-08-30T03:30:35;17.33;;;8.52;;
67841;SDS011;54642;59.126;37.876;2022-08-30T03:33:01;11.93;;;8.43;;
67841;SDS011;54642;59.126;37.876;2022-08-30T03:35:28;13.63;;;10.85;;
67841;SDS011;54642;59.126;37.876;2022-08-30T03:37:56;13.85;;;9.43;;
67841;SDS011;54642;59.126;37.876;2022-08-30T03:40:23;12.95;;;9.52;;
67841;SDS011;54642;59.126;37.876;2022-08-30T03:42:49;12.35;;;9.02;;
67841;SDS011;54642;59.126;37.876;2022-08-30T03:45:17;16.85;;;9.82;;
67841;SDS011;54642;59.126;37.876;2022-08-30T03:47:44;16.58;;;9.50;;
67841;SDS011;54642;59.126;37.876;2022-08-30T03:50:11;15.52;;;9.02;;
67841;SDS011;54642;59.126;37.876;2022-08-30T03:52:39;17.27;;;8.88;;
67841;SDS011;54642;59.126;37.876;2022-08-30T03:55:04;16.20;;;9.90;;
67841;SDS011;54642;59.126;37.876;2022-08-30T03:57:31;14.43;;;9.15;;
67841;SDS011;54642;59.126;37.876;2022-08-30T03:59:58;13.55;;;9.20;;
67841;SDS011;54642;59.126;37.876;2022-08-30T04:02:24;14.48;;;7.97;;
67841;SDS011;54642;59.126;37.876;2022-08-30T04:04:50;16.42;;;9.63;;
67841;SDS011;54642;59.126;37.876;2022-08-30T04:07:16;12.02;;;9.35;;
67841;SDS011;54642;59.126;37.876;2022-08-30T04:09:43;17.67;;;9.75;;
67841;SDS011;54642;59.126;37.876;2022-08-30T04:12:09;16.25;;;10.02;;
67841;SDS011;54642;59.126;37.876;2022-08-30T04:14:35;19.15;;;8.60;;
67841;SDS011;54642;59.126;37.876;2022-08-30T04:17:01;15.57;;;9.52;;
67841;SDS011;54642;59.126;37.876;2022-08-30T04:19:26;18.90;;;10.80;;
67841;SDS011;54642;59.126;37.876;2022-08-30T04:21:52;12.43;;;8.70;;
67841;SDS011;54642;59.126;37.876;2022-08-30T04:24:18;15.88;;;9.60;;
67841;SDS011;54642;59.126;37.876;2022-08-30T04:26:44;15.52;;;9.55;;
67841;SDS011;54642;59.126;37.876;2022-08-30T04:29:10;13.80;;;9.38;;
67841;SDS011;54642;59.126;37.876;2022-08-30T04:31:36;13.55;;;9.27;;
67841;SDS011;54642;59.126;37.876;2022-08-30T04:34:02;13.45;;;9.25;;
67841;SDS011;54642;59.126;37.876;2022-08-30T04:36:28;12.85;;;10.07;;
67841;SDS011;54642;59.126;37.876;2022-08-30T04:38:54;15.82;;;9.52;;
67841;SDS011;54642;59.126;37.876;2022-08-30T04:41:20;13.90;;;8.27;;
67841;SDS011;54642;59.126;37.876;2022-08-30T04:43:48;13.70;;;8.25;;
67841;SDS011;54642;59.126;37.876;2022-08-30T04:46:15;15.52;;;9.15;;
67841;SDS011;54642;59.126;37.876;2022-08-30T04:48:43;12.20;;;8.27;;
67841;SDS011;54642;59.126;37.876;2022-08-30T04:51:11;24.38;;;15.35;;
67841;SDS011;54642;59.126;37.876;2022-08-30T04:53:39;17.40;;;13.18;;
67841;SDS011;54642;59.126;37.876;2022-08-30T04:56:07;12.88;;;8.57;;
67841;SDS011;54642;59.126;37.876;2022-08-30T04:58:40;14.95;;;8.95;;
67841;SDS011;54642;59.126;37.876;2022-08-30T05:01:17;16.60;;;9.50;;
67841;SDS011;54642;59.126;37.876;2022-08-30T05:03:46;15.02;;;9.85;;
67841;SDS011;54642;59.126;37.876;2022-08-30T05:06:13;13.65;;;9.80;;
67841;SDS011;54642;59.126;37.876;2022-08-30T05:08:39;15.65;;;9.73;;
67841;SDS011;54642;59.126;37.876;2022-08-30T05:11:06;21.30;;;9.63;;
67841;SDS011;54642;59.126;37.876;2022-08-30T05:13:32;18.92;;;9.25;;
67841;SDS011;54642;59.126;37.876;2022-08-30T05:15:58;13.75;;;9.70;;
67841;SDS011;54642;59.126;37.876;2022-08-30T05:18:24;14.45;;;9.60;;
67841;SDS011;54642;59.126;37.876;2022-08-30T05:21:01;28.83;;;9.38;;
67841;SDS011;54642;59.126;37.876;2022-08-30T05:23:32;18.45;;;9.05;;
67841;SDS011;54642;59.126;37.876;2022-08-30T05:26:02;14.88;;;9.05;;
67841;SDS011;54642;59.126;37.876;2022-08-30T05:28:30;15.55;;;9.00;;
67841;SDS011;54642;59.126;37.876;2022-08-30T05:30:55;16.50;;;9.50;;
67841;SDS011;54642;59.126;37.876;2022-08-30T05:33:21;13.07;;;9.52;;
67841;SDS011;54642;59.126;37.876;2022-08-30T05:35:47;14.40;;;9.77;;
67841;SDS011;54642;59.126;37.876;2022-08-30T05:38:13;15.90;;;9.18;;
67841;SDS011;54642;59.126;37.876;2022-08-30T05:40:40;19.23;;;11.25;;
67841;SDS011;54642;59.126;37.876;2022-08-30T05:43:07;16.77;;;10.80;;
67841;SDS011;54642;59.126;37.876;2022-08-30T05:45:34;18.75;;;10.60;;
67841;SDS011;54642;59.126;37.876;2022-08-30T05:48:00;16.17;;;10.70;;
67841;SDS011;54642;59.126;37.876;2022-08-30T05:50:26;14.40;;;10.95;;
67841;SDS011;54642;59.126;37.876;2022-08-30T05:52:51;18.35;;;11.38;;
67841;SDS011;54642;59.126;37.876;2022-08-30T05:55:17;14.15;;;9.93;;
67841;SDS011;54642;59.126;37.876;2022-08-30T05:57:43;20.00;;;11.70;;
67841;SDS011;54642;59.126;37.876;2022-08-30T06:00:13;19.17;;;11.25;;
67841;SDS011;54642;59.126;37.876;2022-08-30T06:02:42;17.90;;;12.25;;
67841;SDS011;54642;59.126;37.876;2022-08-30T06:05:10;17.95;;;12.00;;
67841;SDS011;54642;59.126;37.876;2022-08-30T06:07:36;17.35;;;11.63;;
67841;SDS011;54642;59.126;37.876;2022-08-30T06:10:03;19.80;;;12.73;;
67841;SDS011;54642;59.126;37.876;2022-08-30T06:12:30;16.63;;;12.55;;
67841;SDS011;54642;59.126;37.876;2022-08-30T06:14:56;17.42;;;11.82;;
67841;SDS011;54642;59.126;37.876;2022-08-30T06:17:22;20.55;;;12.70;;
67841;SDS011;54642;59.126;37.876;2022-08-30T06:19:48;22.85;;;12.48;;
67841;SDS011;54642;59.126;37.876;2022-08-30T06:22:14;17.05;;;12.55;;
67841;SDS011;54642;59.126;37.876;2022-08-30T06:24:40;18.10;;;12.75;;
67841;SDS011;54642;59.126;37.876;2022-08-30T06:27:05;16.67;;;11.18;;
67841;SDS011;54642;59.126;37.876;2022-08-30T06:29:31;17.05;;;11.23;;
67841;SDS011;54642;59.126;37.876;2022-08-30T06:31:57;21.10;;;11.85;;
67841;SDS011;54642;59.126;37.876;2022-08-30T06:34:24;17.48;;;12.50;;
67841;SDS011;54642;59.126;37.876;2022-08-30T06:36:49;18.75;;;10.20;;
67841;SDS011;54642;59.126;37.876;2022-08-30T06:39:15;18.77;;;11.57;;
67841;SDS011;54642;59.126;37.876;2022-08-30T06:41:41;18.38;;;11.15;;
67841;SDS011;54642;59.126;37.876;2022-08-30T06:44:33;18.55;;;10.18;;
67841;SDS011;54642;59.126;37.876;2022-08-30T06:46:59;17.15;;;10.10;;
67841;SDS011;54642;59.126;37.876;2022-08-30T06:49:25;20.00;;;13.02;;
67841;SDS011;54642;59.126;37.876;2022-08-30T06:51:51;15.88;;;11.35;;
67841;SDS011;54642;59.126;37.876;2022-08-30T06:54:17;15.65;;;10.68;;
67841;SDS011;54642;59.126;37.876;2022-08-30T06:56:43;14.32;;;10.30;;
67841;SDS011;54642;59.126;37.876;2022-08-30T06:59:10;15.35;;;9.10;;
67841;SDS011;54642;59.126;37.876;2022-08-30T07:01:36;19.85;;;12.70;;
67841;SDS011;54642;59.126;37.876;2022-08-30T07:04:02;18.45;;;13.63;;
67841;SDS011;54642;59.126;37.876;2022-08-30T07:06:29;19.75;;;12.13;;
67841;SDS011;54642;59.126;37.876;2022-08-30T07:08:55;14.50;;;9.52;;
67841;SDS011;54642;59.126;37.876;2022-08-30T07:11:25;16.30;;;11.50;;
67841;SDS011;54642;59.126;37.876;2022-08-30T07:13:56;14.48;;;9.13;;
67841;SDS011;54642;59.126;37.876;2022-08-30T07:16:22;14.57;;;10.50;;
67841;SDS011;54642;59.126;37.876;2022-08-30T07:18:48;15.88;;;9.00;;
67841;SDS011;54642;59.126;37.876;2022-08-30T07:21:24;14.55;;;9.32;;
67841;SDS011;54642;59.126;37.876;2022-08-30T07:23:53;11.90;;;8.48;;
67841;SDS011;54642;59.126;37.876;2022-08-30T07:26:46;16.50;;;9.15;;
67841;SDS011;54642;59.126;37.876;2022-08-30T07:29:11;16.50;;;9.18;;
67841;SDS011;54642;59.126;37.876;2022-08-30T07:31:37;14.75;;;8.90;;
67841;SDS011;54642;59.126;37.876;2022-08-30T07:34:03;19.27;;;8.77;;
67841;SDS011;54642;59.126;37.876;2022-08-30T07:36:30;14.43;;;7.95;;
67841;SDS011;54642;59.126;37.876;2022-08-30T07:38:56;12.13;;;8.93;;
67841;SDS011;54642;59.126;37.876;2022-08-30T07:41:24;13.85;;;8.88;;
67841;SDS011;54642;59.126;37.876;2022-08-30T07:44:04;13.18;;;8.98;;
67841;SDS011;54642;59.126;37.876;2022-08-30T07:46:31;15.02;;;9.60;;
67841;SDS011;54642;59.126;37.876;2022-08-30T07:48:58;14.60;;;8.52;;
67841;SDS011;54642;59.126;37.876;2022-08-30T07:51:26;17.70;;;9.60;;
67841;SDS011;54642;59.126;37.876;2022-08-30T07:53:53;15.80;;;8.43;;
67841;SDS011;54642;59.126;37.876;2022-08-30T07:56:20;15.45;;;10.32;;
67841;SDS011;54642;59.126;37.876;2022-08-30T07:58:46;13.85;;;8.68;;
67841;SDS011;54642;59.126;37.876;2022-08-30T08:01:13;16.33;;;9.48;;
67841;SDS011;54642;59.126;37.876;2022-08-30T08:03:40;14.90;;;9.10;;
67841;SDS011;54642;59.126;37.876;2022-08-30T08:06:08;13.10;;;9.65;;
67841;SDS011;54642;59.126;37.876;2022-08-30T08:08:35;14.13;;;9.32;;
67841;SDS011;54642;59.126;37.876;2022-08-30T08:11:09;14.23;;;8.95;;
67841;SDS011;54642;59.126;37.876;2022-08-30T08:13:43;14.27;;;8.15;;
67841;SDS011;54642;59.126;37.876;2022-08-30T08:16:10;12.68;;;7.90;;
67841;SDS011;54642;59.126;37.876;2022-08-30T08:18:36;14.77;;;8.95;;
67841;SDS011;54642;59.126;37.876;2022-08-30T08:21:02;14.13;;;8.18;;
67841;SDS011;54642;59.126;37.876;2022-08-30T08:23:28;11.20;;;8.23;;
67841;SDS011;54642;59.126;37.876;2022-08-30T08:25:54;11.05;;;7.32;;
67841;SDS011;54642;59.126;37.876;2022-08-30T08:28:21;13.65;;;9.25;;
67841;SDS011;54642;59.126;37.876;2022-08-30T08:30:47;14.48;;;8.00;;
67841;SDS011;54642;59.126;37.876;2022-08-30T08:33:14;15.02;;;9.77;;
67841;SDS011;54642;59.126;37.876;2022-08-30T08:35:41;13.48;;;7.88;;
67841;SDS011;54642;59.126;37.876;2022-08-30T08:38:07;28.90;;;14.93;;
67841;SDS011;54642;59.126;37.876;2022-08-30T08:40:37;27.83;;;14.55;;
67841;SDS011;54642;59.126;37.876;2022-08-30T08:43:15;21.52;;;10.98;;
67841;SDS011;54642;59.126;37.876;2022-08-30T08:48:33;16.13;;;10.27;;
67841;SDS011;54642;59.126;37.876;2022-08-30T08:51:09;14.75;;;8.25;;
67841;SDS011;54642;59.126;37.876;2022-08-30T08:54:01;13.70;;;9.52;;
67841;SDS011;54642;59.126;37.876;2022-08-30T08:56:31;14.38;;;8.38;;
67841;SDS011;54642;59.126;37.876;2022-08-30T08:58:58;16.23;;;10.25;;
67841;SDS011;54642;59.126;37.876;2022-08-30T09:01:25;14.60;;;8.23;;
67841;SDS011;54642;59.126;37.876;2022-08-30T09:03:54;16.42;;;9.27;;
67841;SDS011;54642;59.126;37.876;2022-08-30T09:09:28;14.00;;;8.95;;
67841;SDS011;54642;59.126;37.876;2022-08-30T09:11:57;15.38;;;9.10;;
67841;SDS011;54642;59.126;37.876;2022-08-30T09:14:34;14.82;;;6.97;;
67841;SDS011;54642;59.126;37.876;2022-08-30T09:19:38;13.13;;;8.07;;
67841;SDS011;54642;59.126;37.876;2022-08-30T09:27:38;11.88;;;8.20;;
67841;SDS011;54642;59.126;37.876;2022-08-30T09:30:07;12.98;;;7.93;;
67841;SDS011;54642;59.126;37.876;2022-08-30T09:32:40;9.82;;;6.90;;
67841;SDS011;54642;59.126;37.876;2022-08-30T09:35:51;11.65;;;7.72;;
67841;SDS011;54642;59.126;37.876;2022-08-30T09:40:54;13.07;;;8.40;;
67841;SDS011;54642;59.126;37.876;2022-08-30T09:43:30;14.45;;;6.88;;
67841;SDS011;54642;59.126;37.876;2022-08-30T09:53:42;29.67;;;16.73;;
67841;SDS011;54642;59.126;37.876;2022-08-30T09:59:34;15.25;;;8.93;;
67841;SDS011;54642;59.126;37.876;2022-08-30T10:04:52;15.77;;;7.15;;
67841;SDS011;54642;59.126;37.876;2022-08-30T10:07:51;10.30;;;6.63;;
67841;SDS011;54642;59.126;37.876;2022-08-30T10:15:28;11.10;;;7.70;;
67841;SDS011;54642;59.126;37.876;2022-08-30T10:18:10;11.27;;;6.45;;
67841;SDS011;54642;59.126;37.876;2022-08-30T10:23:27;9.20;;;6.88;;
67841;SDS011;54642;59.126;37.876;2022-08-30T10:26:03;9.95;;;7.20;;
67841;SDS011;54642;59.126;37.876;2022-08-30T10:28:53;8.10;;;6.78;;
67841;SDS011;54642;59.126;37.876;2022-08-30T10:31:25;10.55;;;6.50;;
67841;SDS011;54642;59.126;37.876;2022-08-30T10:34:00;9.82;;;7.30;;
67841;SDS011;54642;59.126;37.876;2022-08-30T10:36:32;10.88;;;6.25;;
67841;SDS011;54642;59.126;37.876;2022-08-30T10:39:05;18.67;;;7.10;;
67841;SDS011;54642;59.126;37.876;2022-08-30T10:41:37;12.52;;;7.88;;
67841;SDS011;54642;59.126;37.876;2022-08-30T10:44:14;15.50;;;6.45;;
67841;SDS011;54642;59.126;37.876;2022-08-30T10:47:03;10.05;;;6.45;;
67841;SDS011;54642;59.126;37.876;2022-08-30T10:50:29;15.85;;;7.60;;
67841;SDS011;54642;59.126;37.876;2022-08-30T10:52:58;12.85;;;6.88;;
67841;SDS011;54642;59.126;37.876;2022-08-30T10:55:25;12.93;;;6.50;;
67841;SDS011;54642;59.126;37.876;2022-08-30T10:57:58;12.32;;;7.00;;
67841;SDS011;54642;59.126;37.876;2022-08-30T11:00:36;10.57;;;6.05;;
67841;SDS011;54642;59.126;37.876;2022-08-30T11:09:26;9.82;;;6.88;;
67841;SDS011;54642;59.126;37.876;2022-08-30T11:14:45;13.27;;;7.55;;
67841;SDS011;54642;59.126;37.876;2022-08-30T11:19:49;9.95;;;6.80;;
67841;SDS011;54642;59.126;37.876;2022-08-30T11:25:14;11.27;;;7.32;;
67841;SDS011;54642;59.126;37.876;2022-08-30T11:28:00;11.13;;;6.20;;
67841;SDS011;54642;59.126;37.876;2022-08-30T11:32:56;11.43;;;7.03;;
67841;SDS011;54642;59.126;37.876;2022-08-30T11:35:38;12.38;;;7.68;;
67841;SDS011;54642;59.126;37.876;2022-08-30T11:40:50;12.13;;;7.07;;
67841;SDS011;54642;59.126;37.876;2022-08-30T11:48:43;16.20;;;8.10;;
67841;SDS011;54642;59.126;37.876;2022-08-30T12:02:53;8.93;;;6.22;;
67841;SDS011;54642;59.126;37.876;2022-08-30T12:08:03;12.10;;;6.20;;
67841;SDS011;54642;59.126;37.876;2022-08-30T12:18:37;12.35;;;6.13;;
67841;SDS011;54642;59.126;37.876;2022-08-30T12:23:47;10.10;;;6.88;;
67841;SDS011;54642;59.126;37.876;2022-08-30T12:26:39;9.30;;;6.28;;
67841;SDS011;54642;59.126;37.876;2022-08-30T12:29:12;10.43;;;6.53;;
67841;SDS011;54642;59.126;37.876;2022-08-30T12:31:40;11.85;;;6.82;;
67841;SDS011;54642;59.126;37.876;2022-08-30T12:35:16;9.02;;;6.40;;
67841;SDS011;54642;59.126;37.876;2022-08-30T12:39:39;12.93;;;5.40;;
67841;SDS011;54642;59.126;37.876;2022-08-30T12:42:18;10.27;;;7.05;;
67841;SDS011;54642;59.126;37.876;2022-08-30T12:44:53;10.00;;;6.07;;
67841;SDS011;54642;59.126;37.876;2022-08-30T12:50:14;10.45;;;7.70;;
67841;SDS011;54642;59.126;37.876;2022-08-30T12:52:44;14.52;;;6.80;;
67841;SDS011;54642;59.126;37.876;2022-08-30T12:55:18;13.73;;;9.55;;
67841;SDS011;54642;59.126;37.876;2022-08-30T12:58:09;9.65;;;6.93;;
67841;SDS011;54642;59.126;37.876;2022-08-30T13:00:39;13.75;;;6.75;;
67841;SDS011;54642;59.126;37.876;2022-08-30T13:06:03;12.38;;;6.97;;
67841;SDS011;54642;59.126;37.876;2022-08-30T13:08:36;8.65;;;5.28;;
67841;SDS011;54642;59.126;37.876;2022-08-30T13:11:09;9.38;;;5.78;;
67841;SDS011;54642;59.126;37.876;2022-08-30T13:21:51;13.45;;;6.57;;
67841;SDS011;54642;59.126;37.876;2022-08-30T13:24:21;12.23;;;5.88;;
67841;SDS011;54642;59.126;37.876;2022-08-30T13:26:47;15.48;;;5.55;;
67841;SDS011;54642;59.126;37.876;2022-08-30T13:29:14;15.15;;;6.57;;
67841;SDS011;54642;59.126;37.876;2022-08-30T13:31:45;11.57;;;5.72;;
67841;SDS011;54642;59.126;37.876;2022-08-30T13:34:11;13.55;;;6.43;;
67841;SDS011;54642;59.126;37.876;2022-08-30T13:36:56;12.48;;;5.57;;
67841;SDS011;54642;59.126;37.876;2022-08-30T13:39:23;8.55;;;5.70;;
67841;SDS011;54642;59.126;37.876;2022-08-30T13:41:49;11.80;;;6.18;;
67841;SDS011;54642;59.126;37.876;2022-08-30T13:44:16;8.95;;;6.55;;
67841;SDS011;54642;59.126;37.876;2022-08-30T13:46:46;12.07;;;6.28;;
67841;SDS011;54642;59.126;37.876;2022-08-30T13:49:16;10.25;;;5.75;;
67841;SDS011;54642;59.126;37.876;2022-08-30T13:51:46;9.27;;;5.28;;
67841;SDS011;54642;59.126;37.876;2022-08-30T13:54:13;9.80;;;4.55;;
67841;SDS011;54642;59.126;37.876;2022-08-30T13:56:39;9.57;;;6.85;;
67841;SDS011;54642;59.126;37.876;2022-08-30T13:59:05;10.52;;;5.72;;
67841;SDS011;54642;59.126;37.876;2022-08-30T14:01:31;8.95;;;5.47;;
67841;SDS011;54642;59.126;37.876;2022-08-30T14:03:57;10.77;;;4.55;;
67841;SDS011;54642;59.126;37.876;2022-08-30T14:06:23;10.40;;;4.65;;
67841;SDS011;54642;59.126;37.876;2022-08-30T14:08:49;11.27;;;6.38;;
67841;SDS011;54642;59.126;37.876;2022-08-30T14:11:16;13.55;;;7.57;;
67841;SDS011;54642;59.126;37.876;2022-08-30T14:13:44;11.20;;;5.57;;
67841;SDS011;54642;59.126;37.876;2022-08-30T14:16:10;11.50;;;6.53;;
67841;SDS011;54642;59.126;37.876;2022-08-30T14:18:36;10.98;;;6.07;;
67841;SDS011;54642;59.126;37.876;2022-08-30T14:21:02;9.70;;;4.28;;
67841;SDS011;54642;59.126;37.876;2022-08-30T14:23:28;8.40;;;5.05;;
67841;SDS011;54642;59.126;37.876;2022-08-30T14:25:55;8.70;;;5.78;;
67841;SDS011;54642;59.126;37.876;2022-08-30T14:28:21;10.77;;;5.40;;
67841;SDS011;54642;59.126;37.876;2022-08-30T14:30:47;7.38;;;4.80;;
67841;SDS011;54642;59.126;37.876;2022-08-30T14:33:13;8.52;;;4.55;;
67841;SDS011;54642;59.126;37.876;2022-08-30T14:35:39;7.97;;;5.47;;
67841;SDS011;54642;59.126;37.876;2022-08-30T14:38:05;10.68;;;4.47;;
67841;SDS011;54642;59.126;37.876;2022-08-30T14:40:31;8.50;;;5.22;;
67841;SDS011;54642;59.126;37.876;2022-08-30T14:42:57;8.55;;;4.85;;
67841;SDS011;54642;59.126;37.876;2022-08-30T14:45:23;10.95;;;5.05;;
67841;SDS011;54642;59.126;37.876;2022-08-30T14:47:49;9.52;;;5.18;;
67841;SDS011;54642;59.126;37.876;2022-08-30T14:50:14;8.65;;;4.40;;
67841;SDS011;54642;59.126;37.876;2022-08-30T14:52:40;7.68;;;4.93;;
67841;SDS011;54642;59.126;37.876;2022-08-30T14:55:08;7.70;;;5.20;;
67841;SDS011;54642;59.126;37.876;2022-08-30T14:57:36;8.20;;;4.00;;
67841;SDS011;54642;59.126;37.876;2022-08-30T15:00:03;7.80;;;4.63;;
67841;SDS011;54642;59.126;37.876;2022-08-30T15:02:32;9.00;;;5.22;;
67841;SDS011;54642;59.126;37.876;2022-08-30T15:04:58;8.57;;;4.60;;
67841;SDS011;54642;59.126;37.876;2022-08-30T15:07:24;7.70;;;4.03;;
67841;SDS011;54642;59.126;37.876;2022-08-30T15:09:50;14.40;;;6.90;;
67841;SDS011;54642;59.126;37.876;2022-08-30T15:12:16;8.57;;;4.45;;
67841;SDS011;54642;59.126;37.876;2022-08-30T15:14:42;9.43;;;6.10;;
67841;SDS011;54642;59.126;37.876;2022-08-30T15:17:07;6.57;;;3.90;;
67841;SDS011;54642;59.126;37.876;2022-08-30T15:19:34;9.95;;;4.90;;
67841;SDS011;54642;59.126;37.876;2022-08-30T15:22:00;10.43;;;4.70;;
67841;SDS011;54642;59.126;37.876;2022-08-30T15:24:29;10.50;;;4.78;;
67841;SDS011;54642;59.126;37.876;2022-08-30T15:26:56;7.63;;;4.45;;
67841;SDS011;54642;59.126;37.876;2022-08-30T15:29:25;7.13;;;4.97;;
67841;SDS011;54642;59.126;37.876;2022-08-30T15:31:51;7.07;;;5.20;;
67841;SDS011;54642;59.126;37.876;2022-08-30T15:34:19;6.97;;;4.35;;
67841;SDS011;54642;59.126;37.876;2022-08-30T15:36:46;7.05;;;3.63;;
67841;SDS011;54642;59.126;37.876;2022-08-30T15:39:13;7.78;;;3.83;;
67841;SDS011;54642;59.126;37.876;2022-08-30T15:41:40;8.52;;;4.53;;
67841;SDS011;54642;59.126;37.876;2022-08-30T15:44:06;7.32;;;3.50;;
67841;SDS011;54642;59.126;37.876;2022-08-30T15:46:33;7.88;;;4.95;;
67841;SDS011;54642;59.126;37.876;2022-08-30T15:49:03;6.47;;;3.80;;
67841;SDS011;54642;59.126;37.876;2022-08-30T15:51:31;7.53;;;4.13;;
67841;SDS011;54642;59.126;37.876;2022-08-30T15:53:58;6.60;;;3.90;;
67841;SDS011;54642;59.126;37.876;2022-08-30T15:56:24;8.02;;;4.22;;
67841;SDS011;54642;59.126;37.876;2022-08-30T15:58:50;5.88;;;3.30;;
67841;SDS011;54642;59.126;37.876;2022-08-30T16:01:16;10.05;;;4.82;;
67841;SDS011;54642;59.126;37.876;2022-08-30T16:03:42;7.35;;;3.30;;
67841;SDS011;54642;59.126;37.876;2022-08-30T16:06:10;7.03;;;4.20;;
67841;SDS011;54642;59.126;37.876;2022-08-30T16:08:37;6.60;;;5.03;;
67841;SDS011;54642;59.126;37.876;2022-08-30T16:11:04;6.32;;;4.78;;
67841;SDS011;54642;59.126;37.876;2022-08-30T16:13:32;7.30;;;4.43;;
67841;SDS011;54642;59.126;37.876;2022-08-30T16:15:59;8.45;;;4.13;;